Карточка аэропорта UATT

Внимание!
Информация на этой странице в стадии наполнения.
Если вы не увидели какой-то информации, или заметили неточность - пожалуйста сообщите нам!
Спасибо!
Команда RU-STAFF
Название аэропортаАктобе
Название аэропорта (англ.)Aktobe
Превышение738 ft. (224.9 m.)
Координаты50°14.748', 57°12.402'
Высота перехода10000ft
Эшелон переходаFL120, QNH<733:FL130
Коды ответчика3440-3447, 3540-3547
Зона ОрВДАктобе РПИ (UATT)
Данные METARUATT 251000Z 24005MPS 9999 -TSRA BKN040CB 21/19 Q0991 TEMPO VRB22MPS 1500 TSRA SQ RMK QFE724/0966
Проноз погоды (TAF)UATT 250500Z 2506/2606 22009MPS 3100 -SHRA BKN015CB TX25/2512Z TN14/2600Z TEMPO 2506/2516 28017MPS 2000 TSRA BECMG 2516/2517 28007MPS 9999 NSW TEMPO 2516/2601 27014MPS 3100 -SHRA BKN006 BKN011CB TEMPO 2603/2606 29014MPS
NOTAMshow/hide NOTAM
AWOS   TABLE

Информация о ВПП

ВПП Длина ВПП (м.) Покрытие Курс ВПП Частота ILS
133202Бетон135111.7
313202Бетон315111.7

Диспетчерские позиции




Спутниковое изображение